Dominia — ICFW — position and weather

sailwx.info

Track history (hours):
 
Tides and Currents Weather Stations Pressure Air Temp Water Temp Dewpoint Dewpoint Depression Visibility Wind Speed Wind Dir Waves Ship Positions

Dominia

Last reported at 2015-Jun-30 07:31 UTC. Time now 2015-Jun-30 08:21 UTC.
Position N 36°46' E 003°06'.

Length 176 m; draft 10.5 m.

Type: Ship (hazmat cat A). MMSI: 247273400.

Date/timePositionNaut miles runAvg speedWind from/ knotsBaromVisibWave heightAir tempDewpointWater temp
2015-Jun-30 07:31N 36°46' E 003°06'0 0.0
2015-Jun-30 06:31N 36°46' E 003°06'0 0.0
2015-Jun-30 05:31N 36°46' E 003°06'0 0.0
2015-Jun-30 04:28N 36°46' E 003°06'0 0.0
2015-Jun-30 03:28N 36°46' E 003°06'0 0.0
2015-Jun-30 02:31N 36°46' E 003°06'0 0.0
2015-Jun-30 01:25N 36°46' E 003°06'0 0.0
2015-Jun-30 00:31N 36°46' E 003°06'0 0.0
2015-Jun-29 23:31N 36°46' E 003°06'0 0.0
2015-Jun-29 22:31N 36°46' E 003°06'0 0.0
2015-Jun-29 21:28N 36°46' E 003°06'0 0.0
2015-Jun-29 20:31N 36°46' E 003°06'0 0.0
2015-Jun-29 19:28N 36°46' E 003°06'0 0.0
2015-Jun-29 18:25N 36°46' E 003°06'0 0.0
2015-Jun-29 17:25N 36°46' E 003°06'0 0.0
2015-Jun-29 15:28N 36°46' E 003°06'0 0.0
2015-Jun-29 14:31N 36°46' E 003°06'0 0.0
2015-Jun-29 13:16N 36°46' E 003°06'0 0.0
2015-Jun-29 12:28N 36°46' E 003°06'0 0.0
2015-Jun-29 11:16N 36°46' E 003°06'0 0.0
2015-Jun-29 05:25N 36°46' E 003°07'0 0.0
2015-Jun-29 04:31N 36°46' E 003°07'0 0.0
2015-Jun-29 03:31N 36°46' E 003°06'0 0.0
2015-Jun-29 02:31N 36°46' E 003°07'0 0.0
2015-Jun-29 00:10N 36°46' E 003°07'0 0.0
2015-Jun-28 23:25N 36°46' E 003°07'0 0.0
2015-Jun-28 22:31N 36°46' E 003°07'0 0.0
2015-Jun-28 17:19N 36°46' E 003°06'0 0.0
2015-Jun-28 16:31N 36°46' E 003°06'0 0.0
2015-Jun-28 15:28N 36°46' E 003°07'0 0.0
2015-Jun-28 14:19N 36°46' E 003°07'0 0.0
2015-Jun-28 13:31N 36°46' E 003°07'0 0.0
2015-Jun-28 09:22N 36°46' E 003°07'0 0.0
2015-Jun-28 01:31N 36°46' E 003°07'0 0.0
2015-Jun-28 00:31N 36°46' E 003°06'0 0.0
2015-Jun-27 23:13N 36°46' E 003°07'0 0.0
2015-Jun-27 16:16N 36°46' E 003°06'0 0.0
2015-Jun-27 15:31N 36°46' E 003°06'0 0.0
2015-Jun-27 14:31N 36°46' E 003°06'0 0.0
2015-Jun-27 13:25N 36°46' E 003°06'0 0.0
2015-Jun-27 10:31N 36°46' E 003°06'0 0.0
2015-Jun-27 09:31N 36°46' E 003°06'0 0.0
2015-Jun-27 07:25N 36°46' E 003°06'0 0.0
2015-Jun-27 06:31N 36°46' E 003°06'0 0.0
2015-Jun-27 05:25N 36°46' E 003°06'0 0.0
2015-Jun-27 04:31N 36°46' E 003°06'0 0.0
2015-Jun-27 03:31N 36°46' E 003°06'0 0.0
2015-Jun-27 02:31N 36°46' E 003°06'0 0.0
2015-Jun-27 01:31N 36°46' E 003°06'0 0.0
2015-Jun-27 00:31N 36°46' E 003°06'0 0.1
2015-Jun-26 23:31N 36°46' E 003°06'0 0.0
2015-Jun-26 22:22N 36°46' E 003°06'0 0.0
2015-Jun-26 20:16N 36°46' E 003°06'0 0.0
2015-Jun-26 16:22N 36°46' E 003°06'0 0.1
2015-Jun-26 15:31N 36°46' E 003°06'0 0.0
2015-Jun-26 14:28N 36°46' E 003°06'0 0.0
2015-Jun-26 13:19N 36°46' E 003°06'0 0.0
2015-Jun-26 12:25N 36°46' E 003°06'0 0.0
2015-Jun-26 11:31N 36°46' E 003°06'0 0.0
2015-Jun-25 20:28N 36°46' E 003°06'0 0.0
2015-Jun-24 03:25N 36°46' E 003°06'16 8.0
2015-Jun-24 01:27N 37°02' E 003°02'1112.7
2015-Jun-24 00:33N 37°12' E 002°58'1413.7
2015-Jun-23 23:33N 37°25' E 002°53'3413.9
2015-Jun-23 21:07N 37°58' E 002°40'814.1
2015-Jun-23 20:33N 38°05' E 002°36'1414.1
2015-Jun-23 19:33N 38°19' E 002°32'614.0
2015-Jun-23 19:05N 38°25' E 002°29'171 6.3
2015-Jun-22 16:05N 41°06' E 001°13'2 3.0
2015-Jun-22 15:33N 41°04' E 001°14'1 1.1
2015-Jun-22 14:23N 41°05' E 001°16'0 0.0
2015-Jun-22 13:26N 41°05' E 001°16'0 0.0
2015-Jun-22 12:05N 41°05' E 001°16'0 0.0
2015-Jun-22 11:29N 41°05' E 001°16'0 0.0
2015-Jun-22 09:32N 41°05' E 001°16'0 0.0
2015-Jun-22 06:17N 41°05' E 001°16'0 0.0
2015-Jun-22 05:29N 41°05' E 001°16'0 0.0
2015-Jun-22 03:11N 41°05' E 001°16'0 0.0
2015-Jun-22 00:11N 41°05' E 001°16'0 0.0
2015-Jun-21 23:11N 41°05' E 001°16'0 0.0
2015-Jun-21 20:23N 41°05' E 001°16'0 0.0
2015-Jun-21 18:17N 41°05' E 001°16'0 0.0
2015-Jun-21 16:17N 41°05' E 001°16'0 0.0
2015-Jun-21 15:23N 41°05' E 001°16'0 0.0
2015-Jun-21 13:29N 41°05' E 001°16'0 0.0
2015-Jun-21 12:05N 41°05' E 001°16'0 0.0
2015-Jun-21 11:11N 41°05' E 001°16'0 0.0
2015-Jun-21 10:32N 41°05' E 001°16'0 0.0
2015-Jun-21 09:29N 41°05' E 001°16'0 0.0
2015-Jun-21 07:29N 41°05' E 001°16'0 0.0
2015-Jun-21 06:29N 41°05' E 001°16'0 0.0
2015-Jun-21 05:29N 41°05' E 001°16'0 0.0
2015-Jun-21 03:11N 41°05' E 001°16'0 0.0
2015-Jun-21 02:29N 41°05' E 001°16'0 0.0
2015-Jun-21 01:32N 41°05' E 001°16'0 0.0
2015-Jun-21 00:20N 41°05' E 001°16'0 0.0
2015-Jun-20 23:20N 41°05' E 001°16'0 0.0
2015-Jun-20 21:23N 41°05' E 001°16'0 0.1
2015-Jun-20 20:29N 41°05' E 001°16'0 0.0
2015-Jun-20 19:23N 41°05' E 001°16'0 0.0
2015-Jun-20 17:23N 41°05' E 001°16'0 0.0
2015-Jun-20 16:23N 41°05' E 001°16'0 0.0
2015-Jun-20 15:26N 41°05' E 001°16'0 0.1
2015-Jun-20 14:32N 41°05' E 001°16'0 0.0
2015-Jun-20 13:32N 41°05' E 001°16'0 0.0
2015-Jun-20 07:33N 41°05' E 001°16'  
Track history (hours):
 
Tides and Currents Weather Stations Pressure Air Temp Water Temp Dewpoint Dewpoint Depression Visibility Wind Speed Wind Dir Waves Ship Positions

Dominia

Last reported at 2015-Jun-30 07:31 UTC. Time now 2015-Jun-30 08:21 UTC.
Position N 36°46' E 003°06'.

Length 176 m; draft 10.5 m.

Type: Ship (hazmat cat A). MMSI: 247273400.

Date/timePositionNaut miles runAvg speedWind from/ knotsBaromVisibWave heightAir tempDewpointWater temp
2015-Jun-30 07:31N 36°46' E 003°06'0 0.0
2015-Jun-30 06:31N 36°46' E 003°06'0 0.0
2015-Jun-30 05:31N 36°46' E 003°06'0 0.0
2015-Jun-30 04:28N 36°46' E 003°06'0 0.0
2015-Jun-30 03:28N 36°46' E 003°06'0 0.0
2015-Jun-30 02:31N 36°46' E 003°06'0 0.0
2015-Jun-30 01:25N 36°46' E 003°06'0 0.0
2015-Jun-30 00:31N 36°46' E 003°06'0 0.0
2015-Jun-29 23:31N 36°46' E 003°06'0 0.0
2015-Jun-29 22:31N 36°46' E 003°06'0 0.0
2015-Jun-29 21:28N 36°46' E 003°06'0 0.0
2015-Jun-29 20:31N 36°46' E 003°06'0 0.0
2015-Jun-29 19:28N 36°46' E 003°06'0 0.0
2015-Jun-29 18:25N 36°46' E 003°06'0 0.0
2015-Jun-29 17:25N 36°46' E 003°06'0 0.0
2015-Jun-29 15:28N 36°46' E 003°06'0 0.0
2015-Jun-29 14:31N 36°46' E 003°06'0 0.0
2015-Jun-29 13:16N 36°46' E 003°06'0 0.0
2015-Jun-29 12:28N 36°46' E 003°06'0 0.0
2015-Jun-29 11:16N 36°46' E 003°06'0 0.0
2015-Jun-29 05:25N 36°46' E 003°07'0 0.0
2015-Jun-29 04:31N 36°46' E 003°07'0 0.0
2015-Jun-29 03:31N 36°46' E 003°06'0 0.0
2015-Jun-29 02:31N 36°46' E 003°07'0 0.0
2015-Jun-29 00:10N 36°46' E 003°07'0 0.0
2015-Jun-28 23:25N 36°46' E 003°07'0 0.0
2015-Jun-28 22:31N 36°46' E 003°07'0 0.0
2015-Jun-28 17:19N 36°46' E 003°06'0 0.0
2015-Jun-28 16:31N 36°46' E 003°06'0 0.0
2015-Jun-28 15:28N 36°46' E 003°07'0 0.0
2015-Jun-28 14:19N 36°46' E 003°07'0 0.0
2015-Jun-28 13:31N 36°46' E 003°07'0 0.0
2015-Jun-28 09:22N 36°46' E 003°07'0 0.0
2015-Jun-28 01:31N 36°46' E 003°07'0 0.0
2015-Jun-28 00:31N 36°46' E 003°06'0 0.0
2015-Jun-27 23:13N 36°46' E 003°07'0 0.0
2015-Jun-27 16:16N 36°46' E 003°06'0 0.0
2015-Jun-27 15:31N 36°46' E 003°06'0 0.0
2015-Jun-27 14:31N 36°46' E 003°06'0 0.0
2015-Jun-27 13:25N 36°46' E 003°06'0 0.0
2015-Jun-27 10:31N 36°46' E 003°06'0 0.0
2015-Jun-27 09:31N 36°46' E 003°06'0 0.0
2015-Jun-27 07:25N 36°46' E 003°06'0 0.0
2015-Jun-27 06:31N 36°46' E 003°06'0 0.0
2015-Jun-27 05:25N 36°46' E 003°06'0 0.0
2015-Jun-27 04:31N 36°46' E 003°06'0 0.0
2015-Jun-27 03:31N 36°46' E 003°06'0 0.0
2015-Jun-27 02:31N 36°46' E 003°06'0 0.0
2015-Jun-27 01:31N 36°46' E 003°06'0 0.0
2015-Jun-27 00:31N 36°46' E 003°06'0 0.1
2015-Jun-26 23:31N 36°46' E 003°06'0 0.0
2015-Jun-26 22:22N 36°46' E 003°06'0 0.0
2015-Jun-26 20:16N 36°46' E 003°06'0 0.0
2015-Jun-26 16:22N 36°46' E 003°06'0 0.1
2015-Jun-26 15:31N 36°46' E 003°06'0 0.0
2015-Jun-26 14:28N 36°46' E 003°06'0 0.0
2015-Jun-26 13:19N 36°46' E 003°06'0 0.0
2015-Jun-26 12:25N 36°46' E 003°06'0 0.0
2015-Jun-26 11:31N 36°46' E 003°06'0 0.0
2015-Jun-25 20:28N 36°46' E 003°06'0 0.0
2015-Jun-24 03:25N 36°46' E 003°06'16 8.0
2015-Jun-24 01:27N 37°02' E 003°02'1112.7
2015-Jun-24 00:33N 37°12' E 002°58'1413.7
2015-Jun-23 23:33N 37°25' E 002°53'3413.9
2015-Jun-23 21:07N 37°58' E 002°40'814.1
2015-Jun-23 20:33N 38°05' E 002°36'1414.1
2015-Jun-23 19:33N 38°19' E 002°32'614.0
2015-Jun-23 19:05N 38°25' E 002°29'171 6.3
2015-Jun-22 16:05N 41°06' E 001°13'2 3.0
2015-Jun-22 15:33N 41°04' E 001°14'1 1.1
2015-Jun-22 14:23N 41°05' E 001°16'0 0.0
2015-Jun-22 13:26N 41°05' E 001°16'0 0.0
2015-Jun-22 12:05N 41°05' E 001°16'0 0.0
2015-Jun-22 11:29N 41°05' E 001°16'0 0.0
2015-Jun-22 09:32N 41°05' E 001°16'0 0.0
2015-Jun-22 06:17N 41°05' E 001°16'0 0.0
2015-Jun-22 05:29N 41°05' E 001°16'0 0.0
2015-Jun-22 03:11N 41°05' E 001°16'0 0.0
2015-Jun-22 00:11N 41°05' E 001°16'0 0.0
2015-Jun-21 23:11N 41°05' E 001°16'0 0.0
2015-Jun-21 20:23N 41°05' E 001°16'0 0.0
2015-Jun-21 18:17N 41°05' E 001°16'0 0.0
2015-Jun-21 16:17N 41°05' E 001°16'0 0.0
2015-Jun-21 15:23N 41°05' E 001°16'0 0.0
2015-Jun-21 13:29N 41°05' E 001°16'0 0.0
2015-Jun-21 12:05N 41°05' E 001°16'0 0.0
2015-Jun-21 11:11N 41°05' E 001°16'0 0.0
2015-Jun-21 10:32N 41°05' E 001°16'0 0.0
2015-Jun-21 09:29N 41°05' E 001°16'0 0.0
2015-Jun-21 07:29N 41°05' E 001°16'0 0.0
2015-Jun-21 06:29N 41°05' E 001°16'0 0.0
2015-Jun-21 05:29N 41°05' E 001°16'0 0.0
2015-Jun-21 03:11N 41°05' E 001°16'0 0.0
2015-Jun-21 02:29N 41°05' E 001°16'0 0.0
2015-Jun-21 01:32N 41°05' E 001°16'0 0.0
2015-Jun-21 00:20N 41°05' E 001°16'0 0.0
2015-Jun-20 23:20N 41°05' E 001°16'0 0.0
2015-Jun-20 21:23N 41°05' E 001°16'0 0.1
2015-Jun-20 20:29N 41°05' E 001°16'0 0.0
2015-Jun-20 19:23N 41°05' E 001°16'0 0.0
2015-Jun-20 17:23N 41°05' E 001°16'0 0.0
2015-Jun-20 16:23N 41°05' E 001°16'0 0.0
2015-Jun-20 15:26N 41°05' E 001°16'0 0.1
2015-Jun-20 14:32N 41°05' E 001°16'0 0.0
2015-Jun-20 13:32N 41°05' E 001°16'0 0.0
2015-Jun-20 07:33N 41°05' E 001°16'  

Dump ship's entire track history